^^
Station Historical Data
Daily Summary for February 18, 2017 Units:  English    Metric   Both
« Previous Day
Next Day »
Daily Weekly Monthly Yearly Custom
  High: Low: Average:
Temperature: 61.8 °F 28.5 °F 46.4 °F
Dew Point: 37.7 °F 17.8 °F 29 °F
Humidity: 69% 40% 51%
Wind Speed: 8.0mph 0.0mph 2.3mph
Wind Gust: 16.0mph - -
Wind- - SSW
Pressure: 29.92 in 29.67 in -
Precipitation: 0.00 in    
Historical Graphs
 
 
Tabular Data for February 18, 2017
Time Temperature Dew Point Pressure Wind Wind Speed Wind Gust Humidity Rainfall Rate (Hourly) Conditions
00:00 32.7 °F 18.3 °F 29.91 in Calm   1.0 mph 55% 0.00 in -SN
00:10 31.6 °F 18.5 °F 29.92 in Calm     58% 0.00 in -SN
00:20 32.2 °F 17.8 °F 29.91 in Calm   1.0 mph 55% 0.00 in -SN
00:30 32.3 °F 17.9 °F 29.91 in Calm   1.0 mph 55% 0.00 in -SN
00:40 31.3 °F 18.6 °F 29.91 in Calm     59% 0.00 in -SN
00:50 30.2 °F 18.4 °F 29.91 in Calm     61% 0.00 in -SN
01:00 30.0 °F 18.6 °F 29.91 in Calm     62% 0.00 in -SN
01:10 30.5 °F 18.3 °F 29.91 in Calm   1.0 mph 60% 0.00 in -SN
01:20 29.9 °F 18.5 °F 29.91 in Calm     62% 0.00 in -SN
01:30 29.8 °F 19.1 °F 29.91 in Calm   1.0 mph 64% 0.00 in -SN
01:40 29.9 °F 18.5 °F 29.91 in Calm     62% 0.00 in -SN
01:50 30.0 °F 18.5 °F 29.92 in Calm     62% 0.00 in -SN
02:00 29.9 °F 18.9 °F 29.91 in Calm   1.0 mph 63% 0.00 in -SN
02:09 30.3 °F 18.8 °F 29.91 in Calm   1.0 mph 62% 0.00 in -SN
02:19 29.4 °F 19.4 °F 29.91 in Calm     66% 0.00 in -SN
02:29 28.9 °F 19.3 °F 29.91 in Calm     67% 0.00 in -SN
02:39 28.5 °F 19.7 °F 29.91 in South 1.0 mph 3.0 mph 69% 0.00 in -SN
02:49 29.8 °F 18.7 °F 29.90 in Calm   2.0 mph 63% 0.00 in -SN
03:00 30.4 °F 18.5 °F 29.91 in Calm   2.0 mph 61% 0.00 in -SN
03:09 30.4 °F 18.5 °F 29.90 in Calm   2.0 mph 61% 0.00 in -SN
03:19 29.8 °F 19.1 °F 29.90 in SSW 1.0 mph 2.0 mph 64% 0.00 in -SN
03:29 30.1 °F 18.7 °F 29.90 in Calm   2.0 mph 62% 0.00 in -SN
03:39 30.2 °F 18.8 °F 29.89 in Calm   1.0 mph 62% 0.00 in -SN
03:49 29.8 °F 19.1 °F 29.89 in Calm     64% 0.00 in -SN
03:59 29.0 °F 19.1 °F 29.89 in Calm   1.0 mph 66% 0.00 in -SN
04:09 29.2 °F 18.9 °F 29.89 in Calm     65% 0.00 in -SN
04:19 29.6 °F 18.6 °F 29.89 in Calm     63% 0.00 in -SN
04:29 30.2 °F 18.8 °F 29.89 in Calm     62% 0.00 in -SN
04:39 30.1 °F 18.6 °F 29.89 in Calm   2.0 mph 62% 0.00 in -SN
06:49 30.0 °F 19.7 °F 29.87 in Calm   1.0 mph 65% 0.00 in -SN
07:00 29.8 °F 19.5 °F 29.88 in Calm     65% 0.00 in -SN
07:09 29.6 °F 19.3 °F 29.88 in Calm     65% 0.00 in -SN
07:19 29.6 °F 19.7 °F 29.88 in Calm     66% 0.00 in -SN
07:29 30.8 °F 21.5 °F 29.87 in Calm   1.0 mph 68% 0.00 in -SN
07:50 31.8 °F 21.0 °F 29.87 in Calm   3.0 mph 64% 0.00 in -SN
08:00 32.9 °F 21.7 °F 29.88 in Calm   3.0 mph 63% 0.00 in -SN
08:10 33.8 °F 21.8 °F 29.88 in SSW 2.0 mph 8.0 mph 61% 0.00 in -SN
08:20 34.7 °F 21.8 °F 29.88 in SSW 3.0 mph 8.0 mph 59% 0.00 in -SN
08:40 36.1 °F 21.9 °F 29.87 in SW 3.0 mph 6.0 mph 56% 0.00 in -SN
08:50 36.9 °F 22.7 °F 29.86 in South 1.0 mph 12.0 mph 56% 0.00 in -SN
09:00 38.1 °F 23.3 °F 29.86 in SSW 1.0 mph 7.0 mph 55% 0.00 in -SN
09:10 38.9 °F 23.7 °F 29.86 in SSW 1.0 mph 6.0 mph 54% 0.00 in -SN
09:20 39.8 °F 24.0 °F 29.86 in SSW 2.0 mph 9.0 mph 53% 0.00 in -SN
09:30 40.7 °F 24.8 °F 29.86 in SSW 2.0 mph 9.0 mph 53% 0.00 in -SN
09:40 41.2 °F 24.9 °F 29.87 in SSW 3.0 mph 10.0 mph 52% 0.00 in -SN
09:50 41.6 °F 24.3 °F 29.86 in SW 8.0 mph 14.0 mph 50% 0.00 in -SN
10:10 43.1 °F 25.2 °F 29.86 in SW 7.0 mph 12.0 mph 49% 0.00 in -SN
10:20 43.2 °F 25.3 °F 29.85 in SW 3.0 mph 12.0 mph 49% 0.00 in -SN
10:30 43.5 °F 25.1 °F 29.84 in SSW 5.0 mph 13.0 mph 48% 0.00 in -SN
10:40 44.3 °F 25.8 °F 29.84 in SSW 5.0 mph 14.0 mph 48% 0.00 in -SN
10:50 44.5 °F 25.5 °F 29.84 in SSW 6.0 mph 16.0 mph 47% 0.00 in -SN
11:00 44.9 °F 25.9 °F 29.83 in SSW 7.0 mph 13.0 mph 47% 0.00 in -SN
11:10 45.9 °F 26.8 °F 29.82 in South 5.0 mph 13.0 mph 47% 0.00 in -SN
11:20 46.3 °F 27.2 °F 29.81 in SSW 6.0 mph 12.0 mph 47% 0.00 in -SN
11:30 47.0 °F 27.3 °F 29.81 in SSW 6.0 mph 13.0 mph 46% 0.00 in -SN
11:40 47.6 °F 27.8 °F 29.79 in SSW 5.0 mph 10.0 mph 46% 0.00 in -SN
11:50 48.4 °F 28.6 °F 29.79 in SSW 3.0 mph 9.0 mph 46% 0.00 in -SN
12:00 49.4 °F 29.4 °F 29.78 in SSW 5.0 mph 13.0 mph 46% 0.00 in -SN
12:10 50.1 °F 30.1 °F 29.77 in SSW 3.0 mph 12.0 mph 46% 0.00 in -SN
12:20 50.7 °F 30.1 °F 29.76 in SSW 3.0 mph 12.0 mph 45% 0.00 in -SN
12:30 51.2 °F 30.6 °F 29.76 in SW 5.0 mph 12.0 mph 45% 0.00 in -SN
12:40 51.6 °F 31.5 °F 29.75 in SW 6.0 mph 10.0 mph 46% 0.00 in -SN
12:50 52.5 °F 31.7 °F 29.74 in SSW 5.0 mph 12.0 mph 45% 0.00 in -SN
13:00 53.2 °F 31.8 °F 29.73 in SSW 3.0 mph 8.0 mph 44% 0.00 in -SN
13:10 53.9 °F 32.5 °F 29.72 in SSW 3.0 mph 8.0 mph 44% 0.00 in -SN
13:20 54.2 °F 32.8 °F 29.71 in SSW 2.0 mph 9.0 mph 44% 0.00 in -SN
13:30 55.4 °F 33.3 °F 29.71 in SSW 5.0 mph 8.0 mph 43% 0.00 in CLR
13:40 55.8 °F 33.6 °F 29.70 in SSW 5.0 mph 11.0 mph 43% 0.00 in CLR
14:10 57.6 °F 34.7 °F 29.69 in SSW 6.0 mph 16.0 mph 42% 0.00 in -SN
14:19 57.9 °F 34.9 °F 29.69 in SW 3.0 mph 13.0 mph 42% 0.00 in CLR
14:29 58.1 °F 35.1 °F 29.69 in SW 5.0 mph 9.0 mph 42% 0.00 in CLR
14:49 58.3 °F 35.3 °F 29.68 in South 6.0 mph 12.0 mph 42% 0.00 in CLR
14:59 59.3 °F 35.5 °F 29.69 in SSW 6.0 mph 12.0 mph 41% 0.00 in CLR
15:09 59.8 °F 36.0 °F 29.69 in SSW 6.0 mph 15.0 mph 41% 0.00 in CLR
15:29 60.5 °F 36.7 °F 29.69 in SW 1.0 mph 13.0 mph 41% 0.00 in CLR
15:39 60.7 °F 36.9 °F 29.69 in SW 3.0 mph 13.0 mph 41% 0.00 in CLR
15:49 60.6 °F 36.8 °F 29.69 in SW 3.0 mph 12.0 mph 41% 0.00 in CLR
15:59 61.2 °F 36.7 °F 29.69 in SSW 2.0 mph 9.0 mph 40% 0.00 in CLR
16:09 61.6 °F 37.0 °F 29.68 in SW 5.0 mph 9.0 mph 40% 0.00 in CLR
16:19 61.5 °F 36.9 °F 29.68 in SSW 2.0 mph 7.0 mph 40% 0.00 in CLR
16:29 61.6 °F 37.0 °F 29.68 in SSW 5.0 mph 8.0 mph 40% 0.00 in CLR
16:39 61.7 °F 37.1 °F 29.68 in SSW 5.0 mph 9.0 mph 40% 0.00 in CLR
16:49 61.8 °F 37.2 °F 29.68 in SW 2.0 mph 9.0 mph 40% 0.00 in CLR
16:59 61.6 °F 37.6 °F 29.68 in SSW 2.0 mph 9.0 mph 41% 0.00 in CLR
17:09 61.3 °F 37.4 °F 29.68 in SW 5.0 mph 9.0 mph 41% 0.00 in CLR
17:19 60.3 °F 37.1 °F 29.68 in SW 1.0 mph 7.0 mph 42% 0.00 in CLR
17:30 59.4 °F 36.9 °F 29.68 in SSW 5.0 mph 8.0 mph 43% 0.00 in CLR
17:40 58.7 °F 36.8 °F 29.68 in SW 1.0 mph 6.0 mph 44% 0.00 in CLR
17:50 58.0 °F 37.3 °F 29.68 in South 3.0 mph 8.0 mph 46% 0.00 in CLR
18:00 57.5 °F 37.4 °F 29.68 in South 3.0 mph 9.0 mph 47% 0.00 in CLR
18:10 57.1 °F 37.1 °F 29.68 in SSW 3.0 mph 7.0 mph 47% 0.00 in CLR
18:20 57.2 °F 37.1 °F 29.68 in SSW 2.0 mph 8.0 mph 47% 0.00 in CLR
18:30 57.2 °F 37.6 °F 29.68 in SSW 3.0 mph 6.0 mph 48% 0.00 in CLR
18:50 57.0 °F 37.5 °F 29.68 in South 2.0 mph 8.0 mph 48% 0.00 in CLR
19:00 57.1 °F 37.5 °F 29.68 in South 3.0 mph 7.0 mph 48% 0.00 in CLR
19:10 57.2 °F 37.7 °F 29.68 in SSW 3.0 mph 8.0 mph 48% 0.00 in CLR
19:20 57.3 °F 37.2 °F 29.68 in SSW 2.0 mph 12.0 mph 47% 0.00 in CLR
19:30 57.2 °F 37.7 °F 29.68 in SSW 1.0 mph 7.0 mph 48% 0.00 in CLR
19:40 57.3 °F 37.2 °F 29.68 in SSW 1.0 mph 6.0 mph 47% 0.00 in CLR
19:50 56.9 °F 37.4 °F 29.68 in SSW 1.0 mph 6.0 mph 48% 0.00 in CLR
19:59 56.5 °F 37.0 °F 29.68 in SSW 3.0 mph 7.0 mph 48% 0.00 in CLR
20:10 56.9 °F 36.9 °F 29.68 in SSW 2.0 mph 9.0 mph 47% 0.00 in CLR
20:20 57.2 °F 36.6 °F 29.68 in SSW 5.0 mph 10.0 mph 46% 0.00 in CLR
20:29 57.1 °F 36.5 °F 29.68 in SW 2.0 mph 9.0 mph 46% 0.00 in CLR
20:40 57.0 °F 36.4 °F 29.68 in South 2.0 mph 10.0 mph 46% 0.00 in CLR
20:49 57.0 °F 35.9 °F 29.68 in SSW 5.0 mph 12.0 mph 45% 0.00 in CLR
21:00 56.8 °F 35.7 °F 29.68 in SSW 3.0 mph 8.0 mph 45% 0.00 in CLR
21:09 56.7 °F 35.6 °F 29.68 in SSW 5.0 mph 9.0 mph 45% 0.00 in CLR
21:19 56.4 °F 35.9 °F 29.68 in SW 3.0 mph 10.0 mph 46% 0.00 in CLR
21:29 55.8 °F 35.8 °F 29.68 in SSW 3.0 mph 7.0 mph 47% 0.00 in CLR
21:49 54.6 °F 35.8 °F 29.68 in SW 2.0 mph 6.0 mph 49% 0.00 in CLR
21:59 54.1 °F 35.9 °F 29.68 in SSW 1.0 mph 7.0 mph 50% 0.00 in CLR
22:09 53.8 °F 35.6 °F 29.67 in SSW 3.0 mph 7.0 mph 50% 0.00 in CLR
22:19 53.7 °F 35.5 °F 29.68 in SSW 1.0 mph 9.0 mph 50% 0.00 in CLR
22:29 53.7 °F 35.5 °F 29.67 in SSW 2.0 mph 7.0 mph 50% 0.00 in CLR
22:39 53.6 °F 35.4 °F 29.67 in SSW 2.0 mph 6.0 mph 50% 0.00 in CLR
22:49 53.5 °F 35.3 °F 29.67 in SSW 1.0 mph 6.0 mph 50% 0.00 in CLR
22:59 53.2 °F 35.0 °F 29.67 in SSW 3.0 mph 7.0 mph 50% 0.00 in CLR
23:09 52.8 °F 35.2 °F 29.68 in SSW 1.0 mph 6.0 mph 51% 0.00 in CLR
23:19 52.6 °F 35.0 °F 29.67 in SSW 1.0 mph 7.0 mph 51% 0.00 in CLR
23:29 52.5 °F 34.8 °F 29.68 in SSW 1.0 mph 4.0 mph 51% 0.00 in CLR
23:39 52.4 °F 34.8 °F 29.68 in SSW 1.0 mph 7.0 mph 51% 0.00 in CLR
23:49 52.4 °F 34.8 °F 29.68 in SSW 2.0 mph 6.0 mph 51% 0.00 in CLR
23:59 52.1 °F 35.0 °F 29.68 in SSW 1.0 mph 5.0 mph 52% 0.00 in CLR
TarryTown NY Weather
Compliments of Weather Underground - 1.5 mb